sensor_id;sensor_type;location;lat;lon;timestamp;P1;durP1;ratioP1;P2;durP2;ratioP2
21152;SDS011;10734;44.792;20.482;2023-05-02T00:01:26;6.95;;;2.90;;
21152;SDS011;10734;44.792;20.482;2023-05-02T00:03:52;7.28;;;3.20;;
21152;SDS011;10734;44.792;20.482;2023-05-02T00:06:19;4.88;;;2.80;;
21152;SDS011;10734;44.792;20.482;2023-05-02T00:08:47;6.28;;;2.92;;
21152;SDS011;10734;44.792;20.482;2023-05-02T00:11:13;6.97;;;2.90;;
21152;SDS011;10734;44.792;20.482;2023-05-02T00:13:40;6.03;;;3.00;;
21152;SDS011;10734;44.792;20.482;2023-05-02T00:16:06;6.95;;;3.38;;
21152;SDS011;10734;44.792;20.482;2023-05-02T00:18:33;9.75;;;3.17;;
21152;SDS011;10734;44.792;20.482;2023-05-02T00:20:59;6.68;;;3.33;;
21152;SDS011;10734;44.792;20.482;2023-05-02T00:23:26;6.60;;;3.00;;
21152;SDS011;10734;44.792;20.482;2023-05-02T00:25:52;9.30;;;4.20;;
21152;SDS011;10734;44.792;20.482;2023-05-02T00:28:19;7.75;;;3.65;;
21152;SDS011;10734;44.792;20.482;2023-05-02T00:30:45;8.27;;;3.42;;
21152;SDS011;10734;44.792;20.482;2023-05-02T00:33:12;5.30;;;3.22;;
21152;SDS011;10734;44.792;20.482;2023-05-02T00:35:40;10.00;;;3.85;;
21152;SDS011;10734;44.792;20.482;2023-05-02T00:38:07;6.03;;;3.55;;
21152;SDS011;10734;44.792;20.482;2023-05-02T00:41:07;4.38;;;2.65;;
21152;SDS011;10734;44.792;20.482;2023-05-02T00:43:29;5.63;;;2.75;;
21152;SDS011;10734;44.792;20.482;2023-05-02T00:45:56;9.43;;;3.60;;
21152;SDS011;10734;44.792;20.482;2023-05-02T00:48:22;5.05;;;3.08;;
21152;SDS011;10734;44.792;20.482;2023-05-02T00:50:50;8.55;;;3.15;;
21152;SDS011;10734;44.792;20.482;2023-05-02T00:53:16;6.40;;;3.00;;
21152;SDS011;10734;44.792;20.482;2023-05-02T00:55:43;5.50;;;3.47;;
21152;SDS011;10734;44.792;20.482;2023-05-02T00:58:11;8.52;;;3.60;;
21152;SDS011;10734;44.792;20.482;2023-05-02T01:03:43;16.90;;;3.38;;
21152;SDS011;10734;44.792;20.482;2023-05-02T01:14:02;9.88;;;3.20;;
21152;SDS011;10734;44.792;20.482;2023-05-02T01:16:30;8.57;;;2.95;;
21152;SDS011;10734;44.792;20.482;2023-05-02T01:18:57;11.10;;;3.42;;
21152;SDS011;10734;44.792;20.482;2023-05-02T01:21:24;4.88;;;2.90;;
21152;SDS011;10734;44.792;20.482;2023-05-02T01:23:56;4.53;;;3.42;;
21152;SDS011;10734;44.792;20.482;2023-05-02T01:29:01;5.57;;;2.95;;
21152;SDS011;10734;44.792;20.482;2023-05-02T01:31:30;6.10;;;2.83;;
21152;SDS011;10734;44.792;20.482;2023-05-02T01:33:57;7.13;;;3.13;;
21152;SDS011;10734;44.792;20.482;2023-05-02T01:36:25;10.65;;;2.45;;
21152;SDS011;10734;44.792;20.482;2023-05-02T01:38:53;6.20;;;3.00;;
21152;SDS011;10734;44.792;20.482;2023-05-02T01:41:21;5.60;;;2.50;;
21152;SDS011;10734;44.792;20.482;2023-05-02T01:43:50;5.05;;;2.88;;
21152;SDS011;10734;44.792;20.482;2023-05-02T01:46:17;6.47;;;3.10;;
21152;SDS011;10734;44.792;20.482;2023-05-02T01:48:44;4.35;;;2.67;;
21152;SDS011;10734;44.792;20.482;2023-05-02T01:51:12;6.93;;;2.83;;
21152;SDS011;10734;44.792;20.482;2023-05-02T01:53:40;5.65;;;3.25;;
21152;SDS011;10734;44.792;20.482;2023-05-02T01:56:07;5.70;;;2.83;;
21152;SDS011;10734;44.792;20.482;2023-05-02T01:58:33;7.30;;;3.00;;
21152;SDS011;10734;44.792;20.482;2023-05-02T02:01:01;6.25;;;3.47;;
21152;SDS011;10734;44.792;20.482;2023-05-02T02:03:30;12.35;;;3.08;;
21152;SDS011;10734;44.792;20.482;2023-05-02T02:05:57;5.10;;;2.78;;
21152;SDS011;10734;44.792;20.482;2023-05-02T02:08:24;5.28;;;2.65;;
21152;SDS011;10734;44.792;20.482;2023-05-02T02:10:53;8.52;;;3.00;;
21152;SDS011;10734;44.792;20.482;2023-05-02T02:13:26;6.93;;;2.65;;
21152;SDS011;10734;44.792;20.482;2023-05-02T02:15:55;7.75;;;2.67;;
21152;SDS011;10734;44.792;20.482;2023-05-02T02:18:23;4.47;;;2.97;;
21152;SDS011;10734;44.792;20.482;2023-05-02T02:20:51;6.82;;;3.20;;
21152;SDS011;10734;44.792;20.482;2023-05-02T02:23:19;5.40;;;3.17;;
21152;SDS011;10734;44.792;20.482;2023-05-02T02:25:47;5.00;;;3.13;;
21152;SDS011;10734;44.792;20.482;2023-05-02T02:28:14;5.70;;;2.72;;
21152;SDS011;10734;44.792;20.482;2023-05-02T02:30:41;4.10;;;3.05;;
21152;SDS011;10734;44.792;20.482;2023-05-02T02:33:07;7.00;;;3.20;;
21152;SDS011;10734;44.792;20.482;2023-05-02T02:35:36;8.30;;;2.80;;
21152;SDS011;10734;44.792;20.482;2023-05-02T02:40:55;8.70;;;3.17;;
21152;SDS011;10734;44.792;20.482;2023-05-02T02:43:24;7.30;;;3.03;;
21152;SDS011;10734;44.792;20.482;2023-05-02T02:48:31;8.48;;;3.22;;
21152;SDS011;10734;44.792;20.482;2023-05-02T02:51:08;7.97;;;2.97;;
21152;SDS011;10734;44.792;20.482;2023-05-02T02:56:11;3.60;;;2.80;;
21152;SDS011;10734;44.792;20.482;2023-05-02T02:58:46;10.23;;;3.03;;
21152;SDS011;10734;44.792;20.482;2023-05-02T03:01:20;6.78;;;3.03;;
21152;SDS011;10734;44.792;20.482;2023-05-02T03:03:47;6.15;;;3.03;;
21152;SDS011;10734;44.792;20.482;2023-05-02T03:06:15;7.03;;;2.90;;
21152;SDS011;10734;44.792;20.482;2023-05-02T03:08:43;6.22;;;3.00;;
21152;SDS011;10734;44.792;20.482;2023-05-02T03:11:09;5.85;;;3.10;;
21152;SDS011;10734;44.792;20.482;2023-05-02T03:13:36;6.75;;;2.95;;
21152;SDS011;10734;44.792;20.482;2023-05-02T03:16:11;5.43;;;2.60;;
21152;SDS011;10734;44.792;20.482;2023-05-02T03:18:43;10.45;;;2.78;;
21152;SDS011;10734;44.792;20.482;2023-05-02T03:21:09;4.70;;;3.38;;
21152;SDS011;10734;44.792;20.482;2023-05-02T03:23:36;5.25;;;3.30;;
21152;SDS011;10734;44.792;20.482;2023-05-02T03:26:02;6.93;;;3.05;;
21152;SDS011;10734;44.792;20.482;2023-05-02T03:28:29;8.82;;;3.25;;
21152;SDS011;10734;44.792;20.482;2023-05-02T03:30:56;3.80;;;3.10;;
21152;SDS011;10734;44.792;20.482;2023-05-02T03:33:22;7.40;;;2.95;;
21152;SDS011;10734;44.792;20.482;2023-05-02T03:35:49;6.93;;;3.30;;
21152;SDS011;10734;44.792;20.482;2023-05-02T03:38:15;7.82;;;3.47;;
21152;SDS011;10734;44.792;20.482;2023-05-02T03:40:42;7.60;;;3.40;;
21152;SDS011;10734;44.792;20.482;2023-05-02T03:43:08;7.00;;;3.17;;
21152;SDS011;10734;44.792;20.482;2023-05-02T03:45:34;8.80;;;3.35;;
21152;SDS011;10734;44.792;20.482;2023-05-02T03:48:01;6.63;;;3.10;;
21152;SDS011;10734;44.792;20.482;2023-05-02T03:50:28;4.97;;;3.10;;
21152;SDS011;10734;44.792;20.482;2023-05-02T03:52:55;8.48;;;2.70;;
21152;SDS011;10734;44.792;20.482;2023-05-02T03:55:21;7.55;;;3.63;;
21152;SDS011;10734;44.792;20.482;2023-05-02T03:57:48;7.30;;;2.90;;
21152;SDS011;10734;44.792;20.482;2023-05-02T04:00:14;7.85;;;3.03;;
21152;SDS011;10734;44.792;20.482;2023-05-02T04:02:41;9.38;;;3.25;;
21152;SDS011;10734;44.792;20.482;2023-05-02T04:05:07;6.55;;;2.60;;
21152;SDS011;10734;44.792;20.482;2023-05-02T04:07:34;5.93;;;3.25;;
21152;SDS011;10734;44.792;20.482;2023-05-02T04:10:00;7.25;;;3.10;;
21152;SDS011;10734;44.792;20.482;2023-05-02T04:12:28;8.60;;;3.42;;
21152;SDS011;10734;44.792;20.482;2023-05-02T04:14:54;6.75;;;3.47;;
21152;SDS011;10734;44.792;20.482;2023-05-02T04:17:21;4.10;;;2.95;;
21152;SDS011;10734;44.792;20.482;2023-05-02T04:19:47;11.45;;;3.47;;
21152;SDS011;10734;44.792;20.482;2023-05-02T04:22:14;8.25;;;3.03;;
21152;SDS011;10734;44.792;20.482;2023-05-02T04:24:40;4.82;;;2.75;;
21152;SDS011;10734;44.792;20.482;2023-05-02T04:27:07;7.13;;;4.45;;
21152;SDS011;10734;44.792;20.482;2023-05-02T04:29:33;10.02;;;6.00;;
21152;SDS011;10734;44.792;20.482;2023-05-02T04:32:00;10.30;;;5.53;;
21152;SDS011;10734;44.792;20.482;2023-05-02T04:34:27;7.30;;;4.43;;
21152;SDS011;10734;44.792;20.482;2023-05-02T04:36:53;9.38;;;3.78;;
21152;SDS011;10734;44.792;20.482;2023-05-02T04:39:20;6.60;;;3.20;;
21152;SDS011;10734;44.792;20.482;2023-05-02T04:41:46;8.70;;;3.25;;
21152;SDS011;10734;44.792;20.482;2023-05-02T04:44:13;9.55;;;4.10;;
21152;SDS011;10734;44.792;20.482;2023-05-02T04:46:39;10.70;;;4.80;;
21152;SDS011;10734;44.792;20.482;2023-05-02T04:49:06;5.35;;;3.47;;
21152;SDS011;10734;44.792;20.482;2023-05-02T04:51:33;9.75;;;3.65;;
21152;SDS011;10734;44.792;20.482;2023-05-02T04:53:59;7.25;;;3.00;;
21152;SDS011;10734;44.792;20.482;2023-05-02T04:56:26;13.25;;;3.53;;
21152;SDS011;10734;44.792;20.482;2023-05-02T04:58:53;8.60;;;3.58;;
21152;SDS011;10734;44.792;20.482;2023-05-02T05:01:20;7.18;;;3.42;;
21152;SDS011;10734;44.792;20.482;2023-05-02T05:03:46;7.13;;;3.45;;
21152;SDS011;10734;44.792;20.482;2023-05-02T05:06:14;9.98;;;3.63;;
21152;SDS011;10734;44.792;20.482;2023-05-02T05:08:41;6.25;;;3.42;;
21152;SDS011;10734;44.792;20.482;2023-05-02T05:11:07;8.50;;;3.03;;
21152;SDS011;10734;44.792;20.482;2023-05-02T05:13:34;6.60;;;3.63;;
21152;SDS011;10734;44.792;20.482;2023-05-02T05:16:01;5.90;;;3.25;;
21152;SDS011;10734;44.792;20.482;2023-05-02T05:18:28;4.47;;;3.20;;
21152;SDS011;10734;44.792;20.482;2023-05-02T05:20:54;4.97;;;3.22;;
21152;SDS011;10734;44.792;20.482;2023-05-02T05:23:21;9.27;;;3.25;;
21152;SDS011;10734;44.792;20.482;2023-05-02T05:25:48;6.07;;;3.20;;
21152;SDS011;10734;44.792;20.482;2023-05-02T05:28:14;4.47;;;2.75;;
21152;SDS011;10734;44.792;20.482;2023-05-02T05:30:41;6.78;;;3.15;;
21152;SDS011;10734;44.792;20.482;2023-05-02T05:33:07;3.92;;;2.38;;
21152;SDS011;10734;44.792;20.482;2023-05-02T05:35:34;11.98;;;3.67;;
21152;SDS011;10734;44.792;20.482;2023-05-02T05:38:00;6.25;;;2.88;;
21152;SDS011;10734;44.792;20.482;2023-05-02T05:40:27;6.40;;;3.13;;
21152;SDS011;10734;44.792;20.482;2023-05-02T05:42:53;5.45;;;3.17;;
21152;SDS011;10734;44.792;20.482;2023-05-02T05:45:19;9.73;;;3.17;;
21152;SDS011;10734;44.792;20.482;2023-05-02T05:47:46;8.52;;;3.00;;
21152;SDS011;10734;44.792;20.482;2023-05-02T05:50:13;9.90;;;3.38;;
21152;SDS011;10734;44.792;20.482;2023-05-02T05:52:39;8.98;;;3.10;;
21152;SDS011;10734;44.792;20.482;2023-05-02T05:55:06;5.50;;;3.15;;
21152;SDS011;10734;44.792;20.482;2023-05-02T05:57:32;3.60;;;2.58;;
21152;SDS011;10734;44.792;20.482;2023-05-02T05:59:59;4.95;;;2.95;;
21152;SDS011;10734;44.792;20.482;2023-05-02T06:02:26;4.22;;;2.70;;
21152;SDS011;10734;44.792;20.482;2023-05-02T06:04:53;7.00;;;3.10;;
21152;SDS011;10734;44.792;20.482;2023-05-02T06:07:20;6.78;;;3.30;;
21152;SDS011;10734;44.792;20.482;2023-05-02T06:09:46;6.20;;;3.25;;
21152;SDS011;10734;44.792;20.482;2023-05-02T06:12:13;7.38;;;2.75;;
21152;SDS011;10734;44.792;20.482;2023-05-02T06:14:41;8.10;;;3.33;;
21152;SDS011;10734;44.792;20.482;2023-05-02T06:17:08;7.18;;;3.03;;
21152;SDS011;10734;44.792;20.482;2023-05-02T06:19:35;7.10;;;2.72;;
21152;SDS011;10734;44.792;20.482;2023-05-02T06:22:01;9.20;;;3.15;;
21152;SDS011;10734;44.792;20.482;2023-05-02T06:24:28;9.25;;;2.65;;
21152;SDS011;10734;44.792;20.482;2023-05-02T06:26:55;3.85;;;2.83;;
21152;SDS011;10734;44.792;20.482;2023-05-02T06:29:21;7.35;;;2.78;;
21152;SDS011;10734;44.792;20.482;2023-05-02T06:31:48;7.63;;;3.53;;
21152;SDS011;10734;44.792;20.482;2023-05-02T06:34:16;7.68;;;3.17;;
21152;SDS011;10734;44.792;20.482;2023-05-02T06:36:43;7.68;;;2.65;;
21152;SDS011;10734;44.792;20.482;2023-05-02T06:39:09;7.80;;;3.10;;
21152;SDS011;10734;44.792;20.482;2023-05-02T06:41:36;4.75;;;2.88;;
21152;SDS011;10734;44.792;20.482;2023-05-02T06:44:03;9.43;;;2.70;;
21152;SDS011;10734;44.792;20.482;2023-05-02T06:46:30;5.28;;;2.90;;
21152;SDS011;10734;44.792;20.482;2023-05-02T06:48:57;4.97;;;2.63;;
21152;SDS011;10734;44.792;20.482;2023-05-02T06:51:24;4.50;;;2.83;;
21152;SDS011;10734;44.792;20.482;2023-05-02T06:53:51;6.35;;;2.42;;
21152;SDS011;10734;44.792;20.482;2023-05-02T06:56:17;4.18;;;2.55;;
21152;SDS011;10734;44.792;20.482;2023-05-02T06:58:44;3.95;;;2.40;;
21152;SDS011;10734;44.792;20.482;2023-05-02T07:01:11;2.78;;;2.50;;
21152;SDS011;10734;44.792;20.482;2023-05-02T07:03:38;8.48;;;2.10;;
21152;SDS011;10734;44.792;20.482;2023-05-02T07:06:05;7.95;;;2.67;;
21152;SDS011;10734;44.792;20.482;2023-05-02T07:08:31;3.83;;;2.30;;
21152;SDS011;10734;44.792;20.482;2023-05-02T07:10:58;6.03;;;2.58;;
21152;SDS011;10734;44.792;20.482;2023-05-02T07:13:25;3.92;;;2.33;;
21152;SDS011;10734;44.792;20.482;2023-05-02T07:15:52;6.30;;;2.55;;
21152;SDS011;10734;44.792;20.482;2023-05-02T07:18:18;2.70;;;2.10;;
21152;SDS011;10734;44.792;20.482;2023-05-02T07:20:46;6.35;;;2.30;;
21152;SDS011;10734;44.792;20.482;2023-05-02T07:23:13;5.57;;;2.25;;
21152;SDS011;10734;44.792;20.482;2023-05-02T07:25:40;4.82;;;2.10;;
21152;SDS011;10734;44.792;20.482;2023-05-02T07:28:06;7.10;;;2.72;;
21152;SDS011;10734;44.792;20.482;2023-05-02T07:30:33;5.85;;;2.33;;
21152;SDS011;10734;44.792;20.482;2023-05-02T07:33:00;3.13;;;1.92;;
21152;SDS011;10734;44.792;20.482;2023-05-02T07:35:27;13.70;;;2.50;;
21152;SDS011;10734;44.792;20.482;2023-05-02T07:37:53;3.47;;;2.45;;
21152;SDS011;10734;44.792;20.482;2023-05-02T07:40:20;7.38;;;2.67;;
21152;SDS011;10734;44.792;20.482;2023-05-02T07:42:47;2.95;;;2.20;;
21152;SDS011;10734;44.792;20.482;2023-05-02T07:45:16;9.48;;;2.40;;
21152;SDS011;10734;44.792;20.482;2023-05-02T07:47:43;14.20;;;2.58;;
21152;SDS011;10734;44.792;20.482;2023-05-02T07:50:10;8.80;;;2.55;;
21152;SDS011;10734;44.792;20.482;2023-05-02T07:52:37;10.77;;;2.50;;
21152;SDS011;10734;44.792;20.482;2023-05-02T07:55:04;7.20;;;2.40;;
21152;SDS011;10734;44.792;20.482;2023-05-02T07:57:31;4.63;;;2.05;;
21152;SDS011;10734;44.792;20.482;2023-05-02T07:59:58;3.58;;;2.63;;
21152;SDS011;10734;44.792;20.482;2023-05-02T08:02:25;3.75;;;2.05;;
21152;SDS011;10734;44.792;20.482;2023-05-02T08:04:52;12.60;;;2.20;;
21152;SDS011;10734;44.792;20.482;2023-05-02T08:07:19;9.50;;;2.05;;
21152;SDS011;10734;44.792;20.482;2023-05-02T08:09:47;5.88;;;2.67;;
21152;SDS011;10734;44.792;20.482;2023-05-02T08:12:13;5.93;;;1.88;;
21152;SDS011;10734;44.792;20.482;2023-05-02T08:14:40;5.65;;;2.20;;
21152;SDS011;10734;44.792;20.482;2023-05-02T08:17:07;5.70;;;1.75;;
21152;SDS011;10734;44.792;20.482;2023-05-02T08:19:33;8.30;;;2.20;;
21152;SDS011;10734;44.792;20.482;2023-05-02T08:22:00;7.80;;;2.30;;
21152;SDS011;10734;44.792;20.482;2023-05-02T08:24:27;6.20;;;2.60;;
21152;SDS011;10734;44.792;20.482;2023-05-02T08:26:54;6.25;;;2.60;;
21152;SDS011;10734;44.792;20.482;2023-05-02T08:29:32;2.83;;;2.00;;
21152;SDS011;10734;44.792;20.482;2023-05-02T08:31:59;7.32;;;1.85;;
21152;SDS011;10734;44.792;20.482;2023-05-02T08:34:26;5.80;;;1.65;;
21152;SDS011;10734;44.792;20.482;2023-05-02T08:36:53;3.83;;;1.88;;
21152;SDS011;10734;44.792;20.482;2023-05-02T08:39:21;6.03;;;1.95;;
21152;SDS011;10734;44.792;20.482;2023-05-02T08:41:48;8.10;;;2.15;;
21152;SDS011;10734;44.792;20.482;2023-05-02T08:44:15;4.22;;;1.80;;
21152;SDS011;10734;44.792;20.482;2023-05-02T08:46:42;2.97;;;1.90;;
21152;SDS011;10734;44.792;20.482;2023-05-02T08:49:11;7.93;;;1.83;;
21152;SDS011;10734;44.792;20.482;2023-05-02T08:51:41;2.92;;;1.65;;
21152;SDS011;10734;44.792;20.482;2023-05-02T08:54:10;8.77;;;2.00;;
21152;SDS011;10734;44.792;20.482;2023-05-02T08:56:41;2.33;;;1.98;;
21152;SDS011;10734;44.792;20.482;2023-05-02T08:59:08;9.77;;;1.48;;
21152;SDS011;10734;44.792;20.482;2023-05-02T09:01:35;3.72;;;1.42;;
21152;SDS011;10734;44.792;20.482;2023-05-02T09:04:03;3.42;;;1.40;;
21152;SDS011;10734;44.792;20.482;2023-05-02T09:06:30;5.75;;;1.60;;
21152;SDS011;10734;44.792;20.482;2023-05-02T09:08:58;5.65;;;1.58;;
21152;SDS011;10734;44.792;20.482;2023-05-02T09:11:26;4.38;;;1.65;;
21152;SDS011;10734;44.792;20.482;2023-05-02T09:13:53;2.65;;;1.50;;
21152;SDS011;10734;44.792;20.482;2023-05-02T09:16:22;5.72;;;1.70;;
21152;SDS011;10734;44.792;20.482;2023-05-02T09:18:53;9.47;;;2.30;;
21152;SDS011;10734;44.792;20.482;2023-05-02T09:21:21;16.08;;;1.83;;
21152;SDS011;10734;44.792;20.482;2023-05-02T09:23:53;5.57;;;1.70;;
21152;SDS011;10734;44.792;20.482;2023-05-02T09:26:27;2.17;;;1.33;;
21152;SDS011;10734;44.792;20.482;2023-05-02T09:28:58;3.30;;;1.63;;
21152;SDS011;10734;44.792;20.482;2023-05-02T09:31:30;6.18;;;1.60;;
21152;SDS011;10734;44.792;20.482;2023-05-02T09:34:14;3.20;;;1.30;;
21152;SDS011;10734;44.792;20.482;2023-05-02T09:36:43;4.93;;;1.42;;
21152;SDS011;10734;44.792;20.482;2023-05-02T09:39:17;2.55;;;1.70;;
21152;SDS011;10734;44.792;20.482;2023-05-02T09:41:47;4.95;;;1.48;;
21152;SDS011;10734;44.792;20.482;2023-05-02T09:44:16;7.47;;;2.08;;
21152;SDS011;10734;44.792;20.482;2023-05-02T09:46:44;6.78;;;2.45;;
21152;SDS011;10734;44.792;20.482;2023-05-02T09:49:14;3.50;;;1.88;;
21152;SDS011;10734;44.792;20.482;2023-05-02T09:51:44;1.52;;;1.40;;
21152;SDS011;10734;44.792;20.482;2023-05-02T09:54:13;2.92;;;1.50;;
21152;SDS011;10734;44.792;20.482;2023-05-02T09:56:53;4.47;;;1.55;;
21152;SDS011;10734;44.792;20.482;2023-05-02T09:59:21;1.73;;;1.33;;
21152;SDS011;10734;44.792;20.482;2023-05-02T10:04:22;5.57;;;1.88;;
21152;SDS011;10734;44.792;20.482;2023-05-02T10:06:51;3.50;;;1.40;;
21152;SDS011;10734;44.792;20.482;2023-05-02T10:09:22;2.90;;;1.98;;
21152;SDS011;10734;44.792;20.482;2023-05-02T10:11:52;6.68;;;1.60;;
21152;SDS011;10734;44.792;20.482;2023-05-02T10:14:20;4.32;;;1.80;;
21152;SDS011;10734;44.792;20.482;2023-05-02T10:17:03;5.22;;;1.80;;
21152;SDS011;10734;44.792;20.482;2023-05-02T10:19:40;3.05;;;1.90;;
21152;SDS011;10734;44.792;20.482;2023-05-02T10:22:10;3.60;;;1.92;;
21152;SDS011;10734;44.792;20.482;2023-05-02T10:24:38;6.85;;;1.60;;
21152;SDS011;10734;44.792;20.482;2023-05-02T10:27:06;2.65;;;1.60;;
21152;SDS011;10734;44.792;20.482;2023-05-02T10:29:33;4.05;;;2.20;;
21152;SDS011;10734;44.792;20.482;2023-05-02T10:32:01;3.22;;;1.77;;
21152;SDS011;10734;44.792;20.482;2023-05-02T10:34:31;6.55;;;2.03;;
21152;SDS011;10734;44.792;20.482;2023-05-02T10:36:59;10.75;;;1.73;;
21152;SDS011;10734;44.792;20.482;2023-05-02T10:39:28;4.57;;;1.73;;
21152;SDS011;10734;44.792;20.482;2023-05-02T10:41:58;4.53;;;1.42;;
21152;SDS011;10734;44.792;20.482;2023-05-02T10:44:34;4.78;;;2.33;;
21152;SDS011;10734;44.792;20.482;2023-05-02T10:47:23;13.05;;;1.80;;
21152;SDS011;10734;44.792;20.482;2023-05-02T10:49:52;3.17;;;1.80;;
21152;SDS011;10734;44.792;20.482;2023-05-02T10:52:27;4.63;;;1.70;;
21152;SDS011;10734;44.792;20.482;2023-05-02T10:55:21;7.55;;;1.42;;
21152;SDS011;10734;44.792;20.482;2023-05-02T11:00:25;4.28;;;1.60;;
21152;SDS011;10734;44.792;20.482;2023-05-02T11:02:56;3.13;;;1.70;;
21152;SDS011;10734;44.792;20.482;2023-05-02T11:05:23;3.15;;;1.27;;
21152;SDS011;10734;44.792;20.482;2023-05-02T11:10:45;3.53;;;1.63;;
21152;SDS011;10734;44.792;20.482;2023-05-02T11:13:12;3.97;;;1.95;;
21152;SDS011;10734;44.792;20.482;2023-05-02T11:18:12;3.88;;;1.58;;
21152;SDS011;10734;44.792;20.482;2023-05-02T11:20:43;6.05;;;2.45;;
21152;SDS011;10734;44.792;20.482;2023-05-02T11:25:54;4.87;;;1.80;;
21152;SDS011;10734;44.792;20.482;2023-05-02T11:28:38;3.92;;;1.70;;
21152;SDS011;10734;44.792;20.482;2023-05-02T11:34:01;4.25;;;1.50;;
21152;SDS011;10734;44.792;20.482;2023-05-02T11:36:29;3.53;;;1.52;;
21152;SDS011;10734;44.792;20.482;2023-05-02T11:39:02;3.97;;;1.60;;
21152;SDS011;10734;44.792;20.482;2023-05-02T11:41:43;3.38;;;1.33;;
21152;SDS011;10734;44.792;20.482;2023-05-02T11:44:12;4.82;;;1.63;;
21152;SDS011;10734;44.792;20.482;2023-05-02T11:46:39;4.43;;;1.65;;
21152;SDS011;10734;44.792;20.482;2023-05-02T11:49:06;3.40;;;1.80;;
21152;SDS011;10734;44.792;20.482;2023-05-02T11:51:35;3.20;;;1.50;;
21152;SDS011;10734;44.792;20.482;2023-05-02T11:54:02;2.70;;;1.40;;
21152;SDS011;10734;44.792;20.482;2023-05-02T11:56:29;2.22;;;1.35;;
21152;SDS011;10734;44.792;20.482;2023-05-02T11:59:00;4.13;;;1.75;;
21152;SDS011;10734;44.792;20.482;2023-05-02T12:01:28;6.13;;;1.35;;
21152;SDS011;10734;44.792;20.482;2023-05-02T12:04:05;3.97;;;1.67;;
21152;SDS011;10734;44.792;20.482;2023-05-02T12:06:33;3.08;;;1.30;;
21152;SDS011;10734;44.792;20.482;2023-05-02T12:09:13;3.13;;;1.42;;
21152;SDS011;10734;44.792;20.482;2023-05-02T12:11:43;3.25;;;1.60;;
21152;SDS011;10734;44.792;20.482;2023-05-02T12:14:10;6.70;;;1.42;;
21152;SDS011;10734;44.792;20.482;2023-05-02T12:16:36;5.80;;;1.90;;
21152;SDS011;10734;44.792;20.482;2023-05-02T12:19:03;1.48;;;1.35;;
21152;SDS011;10734;44.792;20.482;2023-05-02T12:21:31;4.05;;;1.52;;
21152;SDS011;10734;44.792;20.482;2023-05-02T12:23:59;3.65;;;1.90;;
21152;SDS011;10734;44.792;20.482;2023-05-02T12:26:27;3.13;;;1.50;;
21152;SDS011;10734;44.792;20.482;2023-05-02T12:28:58;2.55;;;1.67;;
21152;SDS011;10734;44.792;20.482;2023-05-02T12:31:27;3.40;;;1.30;;
21152;SDS011;10734;44.792;20.482;2023-05-02T12:33:56;2.38;;;1.60;;
21152;SDS011;10734;44.792;20.482;2023-05-02T12:36:26;3.63;;;1.60;;
21152;SDS011;10734;44.792;20.482;2023-05-02T12:38:57;3.75;;;1.42;;
21152;SDS011;10734;44.792;20.482;2023-05-02T12:41:32;3.67;;;1.63;;
21152;SDS011;10734;44.792;20.482;2023-05-02T12:44:03;2.65;;;1.40;;
21152;SDS011;10734;44.792;20.482;2023-05-02T12:46:31;4.32;;;1.48;;
21152;SDS011;10734;44.792;20.482;2023-05-02T12:49:07;5.30;;;1.98;;
21152;SDS011;10734;44.792;20.482;2023-05-02T12:51:37;7.30;;;1.60;;
21152;SDS011;10734;44.792;20.482;2023-05-02T12:54:05;3.92;;;1.75;;
21152;SDS011;10734;44.792;20.482;2023-05-02T12:56:39;2.90;;;1.45;;
21152;SDS011;10734;44.792;20.482;2023-05-02T12:59:06;5.55;;;1.80;;
21152;SDS011;10734;44.792;20.482;2023-05-02T13:01:33;6.93;;;1.90;;
21152;SDS011;10734;44.792;20.482;2023-05-02T13:04:00;5.40;;;2.05;;
21152;SDS011;10734;44.792;20.482;2023-05-02T13:06:27;3.03;;;1.50;;
21152;SDS011;10734;44.792;20.482;2023-05-02T13:08:54;1.65;;;1.48;;
21152;SDS011;10734;44.792;20.482;2023-05-02T13:11:20;2.58;;;1.45;;
21152;SDS011;10734;44.792;20.482;2023-05-02T13:13:47;5.63;;;1.75;;
21152;SDS011;10734;44.792;20.482;2023-05-02T13:16:14;7.30;;;1.98;;
21152;SDS011;10734;44.792;20.482;2023-05-02T13:18:41;2.67;;;1.63;;
21152;SDS011;10734;44.792;20.482;2023-05-02T13:21:08;2.70;;;1.88;;
21152;SDS011;10734;44.792;20.482;2023-05-02T13:23:34;4.03;;;1.40;;
21152;SDS011;10734;44.792;20.482;2023-05-02T13:26:01;1.98;;;1.73;;
21152;SDS011;10734;44.792;20.482;2023-05-02T13:28:28;6.57;;;1.50;;
21152;SDS011;10734;44.792;20.482;2023-05-02T13:30:58;4.57;;;1.70;;
21152;SDS011;10734;44.792;20.482;2023-05-02T13:33:25;3.53;;;1.48;;
21152;SDS011;10734;44.792;20.482;2023-05-02T13:35:51;2.55;;;1.40;;
21152;SDS011;10734;44.792;20.482;2023-05-02T13:38:18;2.55;;;1.80;;
21152;SDS011;10734;44.792;20.482;2023-05-02T13:40:45;5.22;;;1.60;;
21152;SDS011;10734;44.792;20.482;2023-05-02T13:43:11;5.95;;;1.85;;
21152;SDS011;10734;44.792;20.482;2023-05-02T13:45:38;5.10;;;1.65;;
21152;SDS011;10734;44.792;20.482;2023-05-02T13:48:05;6.65;;;2.17;;
21152;SDS011;10734;44.792;20.482;2023-05-02T13:50:32;10.48;;;1.80;;
21152;SDS011;10734;44.792;20.482;2023-05-02T13:53:02;5.13;;;1.80;;
21152;SDS011;10734;44.792;20.482;2023-05-02T13:55:29;4.25;;;1.95;;
21152;SDS011;10734;44.792;20.482;2023-05-02T13:57:56;3.53;;;1.60;;
21152;SDS011;10734;44.792;20.482;2023-05-02T14:00:22;1.98;;;1.48;;
21152;SDS011;10734;44.792;20.482;2023-05-02T14:02:49;3.58;;;1.73;;
21152;SDS011;10734;44.792;20.482;2023-05-02T14:05:16;3.10;;;1.60;;
21152;SDS011;10734;44.792;20.482;2023-05-02T14:07:43;6.28;;;1.48;;
21152;SDS011;10734;44.792;20.482;2023-05-02T14:10:09;2.83;;;1.58;;
21152;SDS011;10734;44.792;20.482;2023-05-02T14:12:36;4.88;;;1.55;;
21152;SDS011;10734;44.792;20.482;2023-05-02T14:15:03;6.47;;;1.38;;
21152;SDS011;10734;44.792;20.482;2023-05-02T14:17:31;5.75;;;1.90;;
21152;SDS011;10734;44.792;20.482;2023-05-02T14:19:57;3.90;;;1.55;;
21152;SDS011;10734;44.792;20.482;2023-05-02T14:22:24;3.33;;;1.67;;
21152;SDS011;10734;44.792;20.482;2023-05-02T14:24:51;5.15;;;1.58;;
21152;SDS011;10734;44.792;20.482;2023-05-02T14:27:18;4.47;;;1.80;;
21152;SDS011;10734;44.792;20.482;2023-05-02T14:29:45;5.47;;;1.70;;
21152;SDS011;10734;44.792;20.482;2023-05-02T14:32:12;3.00;;;1.75;;
21152;SDS011;10734;44.792;20.482;2023-05-02T14:34:39;3.90;;;1.55;;
21152;SDS011;10734;44.792;20.482;2023-05-02T14:37:07;2.53;;;1.77;;
21152;SDS011;10734;44.792;20.482;2023-05-02T14:39:35;6.82;;;1.65;;
21152;SDS011;10734;44.792;20.482;2023-05-02T14:42:02;4.40;;;1.50;;
21152;SDS011;10734;44.792;20.482;2023-05-02T14:44:29;3.50;;;1.63;;
21152;SDS011;10734;44.792;20.482;2023-05-02T14:46:56;5.15;;;1.90;;
21152;SDS011;10734;44.792;20.482;2023-05-02T14:49:23;4.82;;;1.30;;
21152;SDS011;10734;44.792;20.482;2023-05-02T14:51:51;4.53;;;1.50;;
21152;SDS011;10734;44.792;20.482;2023-05-02T14:54:17;2.20;;;1.50;;
21152;SDS011;10734;44.792;20.482;2023-05-02T14:56:45;3.63;;;1.55;;
21152;SDS011;10734;44.792;20.482;2023-05-02T14:59:13;6.15;;;1.70;;
21152;SDS011;10734;44.792;20.482;2023-05-02T15:01:40;2.38;;;1.73;;
21152;SDS011;10734;44.792;20.482;2023-05-02T15:04:07;4.05;;;1.60;;
21152;SDS011;10734;44.792;20.482;2023-05-02T15:06:34;1.98;;;1.70;;
21152;SDS011;10734;44.792;20.482;2023-05-02T15:09:01;4.03;;;1.73;;
21152;SDS011;10734;44.792;20.482;2023-05-02T15:11:29;5.53;;;1.85;;
21152;SDS011;10734;44.792;20.482;2023-05-02T15:13:56;5.30;;;1.95;;
21152;SDS011;10734;44.792;20.482;2023-05-02T15:16:24;2.50;;;1.77;;